createdAt,value
2018-07-03T00:00:29.136Z,2.03
2018-07-03T00:02:56.942Z,2.00
2018-07-03T00:05:24.562Z,2.00
2018-07-03T00:07:52.719Z,1.93
2018-07-03T00:10:20.412Z,1.93
2018-07-03T00:12:47.987Z,2.00
2018-07-03T00:15:15.964Z,2.03
2018-07-03T00:17:43.639Z,2.13
2018-07-03T00:20:11.251Z,2.20
2018-07-03T00:22:39.043Z,2.13
2018-07-03T00:25:06.688Z,2.07
2018-07-03T00:27:34.264Z,2.07
2018-07-03T00:30:01.842Z,2.00
2018-07-03T00:32:29.419Z,2.03
2018-07-03T00:34:57.060Z,2.10
2018-07-03T00:37:24.743Z,2.17
2018-07-03T00:39:52.461Z,2.20
2018-07-03T00:42:20.315Z,2.40
2018-07-03T00:44:47.903Z,2.00
2018-07-03T00:47:15.467Z,2.10
2018-07-03T00:49:43.021Z,2.23
2018-07-03T00:52:10.548Z,2.03
2018-07-03T00:54:38.143Z,1.90
2018-07-03T00:57:05.700Z,1.60
2018-07-03T00:59:33.315Z,1.60
2018-07-03T01:02:01.054Z,1.70
2018-07-03T01:04:28.664Z,1.40
2018-07-03T01:06:56.360Z,1.60
2018-07-03T01:09:24.004Z,1.50
2018-07-03T01:11:51.688Z,1.70
2018-07-03T01:14:19.411Z,1.60
2018-07-03T01:16:47.084Z,1.77
2018-07-03T01:19:14.872Z,1.60
2018-07-03T01:21:42.469Z,1.73
2018-07-03T01:24:10.003Z,1.33
2018-07-03T01:26:37.593Z,1.50
2018-07-03T01:29:05.999Z,1.40
2018-07-03T01:31:33.595Z,1.50
2018-07-03T01:34:01.452Z,1.30
2018-07-03T01:36:29.129Z,1.20
2018-07-03T01:38:57.606Z,1.53
2018-07-03T01:41:25.294Z,1.43
2018-07-03T01:43:53.946Z,1.77
2018-07-03T01:46:21.492Z,1.30
2018-07-03T01:48:49.145Z,1.50
2018-07-03T01:51:16.696Z,1.50
2018-07-03T01:53:44.239Z,1.70
2018-07-03T01:56:11.831Z,1.50
2018-07-03T01:58:39.538Z,1.50
2018-07-03T02:01:07.558Z,1.73
2018-07-03T02:03:35.168Z,1.70
2018-07-03T02:06:03.103Z,1.70
2018-07-03T02:08:31.647Z,1.60
2018-07-03T02:10:59.226Z,1.40
2018-07-03T02:13:26.787Z,1.43
2018-07-03T02:15:54.324Z,1.53
2018-07-03T02:18:21.859Z,1.83
2018-07-03T02:20:49.572Z,1.87
2018-07-03T02:23:17.144Z,1.80
2018-07-03T02:25:44.693Z,1.50
2018-07-03T02:28:12.328Z,1.70
2018-07-03T02:30:39.916Z,1.60
2018-07-03T02:33:07.559Z,1.60
2018-07-03T02:35:35.138Z,1.73
2018-07-03T02:38:02.679Z,1.80
2018-07-03T02:40:30.239Z,1.70
2018-07-03T02:42:57.764Z,1.77
2018-07-03T02:45:25.362Z,1.70
2018-07-03T02:47:52.983Z,1.70
2018-07-03T02:50:20.812Z,1.80
2018-07-03T02:52:48.455Z,1.57
2018-07-03T02:55:16.303Z,1.80
2018-07-03T02:57:44.155Z,1.70
2018-07-03T03:00:11.811Z,1.67
2018-07-03T03:02:39.366Z,1.93
2018-07-03T03:05:07.038Z,1.60
2018-07-03T03:07:34.613Z,1.80
2018-07-03T03:10:02.256Z,2.17
2018-07-03T03:12:29.924Z,1.87
2018-07-03T03:14:57.596Z,1.60
2018-07-03T03:17:25.160Z,1.83
2018-07-03T03:19:52.712Z,2.00
2018-07-03T03:22:20.487Z,2.00
2018-07-03T03:24:48.475Z,2.00
2018-07-03T03:27:16.115Z,2.30
2018-07-03T03:29:43.635Z,2.00
2018-07-03T03:32:11.164Z,1.93
2018-07-03T03:34:38.784Z,1.90
2018-07-03T03:37:06.305Z,1.90
2018-07-03T03:39:33.948Z,1.87
2018-07-03T03:42:01.487Z,1.90
2018-07-03T03:44:29.070Z,1.87
2018-07-03T03:46:56.620Z,1.97
2018-07-03T03:49:24.471Z,2.10
2018-07-03T03:51:53.128Z,2.20
2018-07-03T03:54:20.736Z,2.27
2018-07-03T03:56:48.354Z,1.90
2018-07-03T03:59:16.016Z,2.40
2018-07-03T04:01:43.644Z,2.00
2018-07-03T04:04:11.275Z,2.13
2018-07-03T04:06:39.003Z,1.80
2018-07-03T04:09:08.814Z,1.90
2018-07-03T04:11:36.455Z,1.70
2018-07-03T04:14:04.309Z,2.00
2018-07-03T04:16:31.984Z,1.97
2018-07-03T04:19:00.333Z,2.03
2018-07-03T04:21:28.060Z,2.27
2018-07-03T04:23:55.868Z,2.10
2018-07-03T04:26:23.404Z,2.23
2018-07-03T04:28:51.330Z,2.00
2018-07-03T04:31:18.854Z,2.17
2018-07-03T04:33:46.354Z,2.10
2018-07-03T04:36:13.898Z,2.47
2018-07-03T04:38:41.521Z,2.60
2018-07-03T04:41:09.076Z,2.23
2018-07-03T04:43:36.640Z,2.33
2018-07-03T04:46:04.223Z,2.20
2018-07-03T04:48:32.499Z,1.90
2018-07-03T04:51:00.481Z,2.40
2018-07-03T04:53:28.434Z,2.20
2018-07-03T04:55:56.052Z,2.27
2018-07-03T04:58:23.613Z,2.20
2018-07-03T05:00:51.324Z,2.50
2018-07-03T05:03:19.018Z,2.00
2018-07-03T05:05:46.576Z,2.30
2018-07-03T05:08:14.201Z,2.70
2018-07-03T05:10:41.759Z,2.50
2018-07-03T05:13:09.376Z,2.50
2018-07-03T05:15:37.156Z,2.97
2018-07-03T05:18:04.918Z,2.40
2018-07-03T05:20:32.616Z,2.83
2018-07-03T05:23:00.351Z,2.87
2018-07-03T05:25:27.835Z,2.80
2018-07-03T05:27:55.545Z,2.80
2018-07-03T05:30:23.088Z,2.90
2018-07-03T05:32:50.772Z,3.10
2018-07-03T05:35:18.465Z,3.17
2018-07-03T05:37:46.059Z,2.80
2018-07-03T05:40:13.713Z,2.80
2018-07-03T05:42:41.375Z,3.20
2018-07-03T05:45:09.125Z,2.97
2018-07-03T05:47:36.795Z,3.30
2018-07-03T05:50:04.975Z,3.60
2018-07-03T05:52:32.543Z,3.37
2018-07-03T05:55:00.077Z,3.57
2018-07-03T05:57:27.841Z,3.40
2018-07-03T05:59:55.549Z,3.73
2018-07-03T06:02:23.130Z,3.50
2018-07-03T06:04:50.839Z,3.10
2018-07-03T06:07:18.460Z,4.17
2018-07-03T06:09:46.367Z,4.00
2018-07-03T06:12:14.235Z,3.53
2018-07-03T06:14:42.223Z,3.30
2018-07-03T06:17:09.950Z,3.33
2018-07-03T06:19:37.544Z,3.47
2018-07-03T06:22:05.135Z,3.00
2018-07-03T06:24:33.631Z,3.50
2018-07-03T06:27:01.277Z,2.50
2018-07-03T06:29:28.944Z,2.40
2018-07-03T06:31:56.543Z,2.10
2018-07-03T06:34:24.285Z,2.00
2018-07-03T06:36:53.128Z,1.87
2018-07-03T06:39:21.477Z,1.80
2018-07-03T06:41:49.956Z,1.70
2018-07-03T06:44:23.618Z,1.53
2018-07-03T06:46:51.623Z,1.70
2018-07-03T06:49:19.321Z,1.60
2018-07-03T06:51:46.912Z,1.87
2018-07-03T06:54:14.501Z,1.70
2018-07-03T06:56:42.102Z,1.73
2018-07-03T06:59:09.992Z,1.60
2018-07-03T07:01:37.702Z,1.47
2018-07-03T07:04:05.350Z,1.57
2018-07-03T07:06:32.913Z,1.87
2018-07-03T07:09:00.503Z,1.90
2018-07-03T07:11:28.159Z,1.80
2018-07-03T07:13:55.995Z,1.70
2018-07-03T07:16:24.195Z,1.90
2018-07-03T07:18:52.536Z,1.60
2018-07-03T07:21:20.193Z,1.90
2018-07-03T07:23:47.737Z,1.90
2018-07-03T07:26:15.284Z,1.80
2018-07-03T07:28:42.881Z,2.20
2018-07-03T07:31:10.638Z,1.92
2018-07-03T07:33:38.198Z,1.90
2018-07-03T07:36:05.843Z,1.90
2018-07-03T07:38:33.490Z,1.67
2018-07-03T07:41:01.115Z,1.95
2018-07-03T07:43:28.740Z,1.37
2018-07-03T07:45:56.446Z,1.47
2018-07-03T07:48:24.219Z,1.70
2018-07-03T07:50:51.784Z,1.45
2018-07-03T07:53:19.395Z,1.42
2018-07-03T07:55:46.964Z,1.62
2018-07-03T07:58:14.497Z,1.55
2018-07-03T08:00:42.049Z,1.47
2018-07-03T08:03:09.615Z,1.50
2018-07-03T08:05:37.204Z,1.50
2018-07-03T08:08:12.311Z,1.65
2018-07-03T08:10:43.078Z,1.50
2018-07-03T08:13:10.718Z,1.40
2018-07-03T08:15:39.732Z,1.22
2018-07-03T08:18:07.325Z,1.37
2018-07-03T08:20:35.032Z,1.45
2018-07-03T08:23:02.773Z,1.30
2018-07-03T08:25:30.375Z,1.20
2018-07-03T08:27:58.751Z,1.50
2018-07-03T08:30:26.469Z,1.12
2018-07-03T08:32:54.160Z,1.42
2018-07-03T08:35:21.775Z,1.30
2018-07-03T08:37:49.576Z,1.30
2018-07-03T08:40:17.235Z,1.32
2018-07-03T08:42:44.876Z,1.55
2018-07-03T08:45:12.600Z,1.25
2018-07-03T08:47:41.404Z,1.50
2018-07-03T08:50:09.172Z,1.37
2018-07-03T08:52:36.808Z,1.27
2018-07-03T08:55:04.421Z,1.47
2018-07-03T08:57:32.091Z,1.40
2018-07-03T08:59:59.751Z,1.50
2018-07-03T09:02:27.589Z,1.40
2018-07-03T09:04:55.175Z,1.60
2018-07-03T09:07:26.248Z,1.60
2018-07-03T09:09:54.106Z,1.60
2018-07-03T09:12:25.116Z,1.42
2018-07-03T09:14:54.033Z,1.30
2018-07-03T09:17:33.661Z,1.40
2018-07-03T09:20:01.681Z,1.12
2018-07-03T09:22:30.824Z,1.10
2018-07-03T09:24:58.699Z,1.55
2018-07-03T09:27:26.480Z,1.70
2018-07-03T09:29:54.048Z,1.25
2018-07-03T09:32:24.150Z,1.05
2018-07-03T09:34:51.772Z,1.52
2018-07-03T09:37:19.441Z,1.30
2018-07-03T09:39:47.164Z,1.20
2018-07-03T09:42:14.823Z,1.20
2018-07-03T09:44:42.488Z,1.10
2018-07-03T09:47:10.080Z,1.00
2018-07-03T09:49:37.707Z,1.27
2018-07-03T09:52:05.324Z,1.00
2018-07-03T09:54:32.902Z,1.10
2018-07-03T09:57:00.618Z,1.10
2018-07-03T09:59:28.379Z,1.12
2018-07-03T10:01:56.083Z,1.20
2018-07-03T10:04:24.660Z,1.27
2018-07-03T10:06:52.392Z,1.20
2018-07-03T10:09:20.085Z,1.10
2018-07-03T10:11:47.705Z,1.22
2018-07-03T10:14:15.255Z,1.22
2018-07-03T10:16:42.846Z,1.10
2018-07-03T10:19:10.556Z,1.20
2018-07-03T10:21:38.115Z,1.30
2018-07-03T10:24:05.719Z,1.40
2018-07-03T10:26:33.355Z,1.12
2018-07-03T10:29:00.920Z,1.32
2018-07-03T10:31:28.833Z,1.37
2018-07-03T10:33:56.581Z,1.25
2018-07-03T10:36:24.173Z,1.40
2018-07-03T10:38:51.863Z,1.30
2018-07-03T10:41:19.450Z,1.67
2018-07-03T10:43:47.079Z,1.37
2018-07-03T10:46:14.699Z,1.90
2018-07-03T10:48:42.331Z,1.90
2018-07-03T10:51:09.987Z,1.30
2018-07-03T10:53:37.593Z,1.20
2018-07-03T10:56:05.462Z,1.20
2018-07-03T10:58:33.147Z,1.45
2018-07-03T11:01:01.368Z,1.20
2018-07-03T11:03:29.231Z,1.00
2018-07-03T11:05:56.860Z,1.00
2018-07-03T11:08:24.586Z,1.25
2018-07-03T11:10:52.229Z,1.60
2018-07-03T11:13:19.815Z,1.40
2018-07-03T11:15:47.504Z,1.30
2018-07-03T11:18:15.104Z,1.40
2018-07-03T11:20:42.668Z,1.32
2018-07-03T11:23:10.228Z,1.60
2018-07-03T11:25:37.795Z,1.40
2018-07-03T11:28:05.727Z,1.37
2018-07-03T11:30:33.444Z,1.22
2018-07-03T11:33:01.233Z,1.40
2018-07-03T11:35:29.156Z,1.30
2018-07-03T11:37:56.783Z,1.40
2018-07-03T11:40:24.483Z,1.30
2018-07-03T11:42:52.126Z,1.20
2018-07-03T11:45:20.924Z,1.42
2018-07-03T11:47:48.582Z,1.20
2018-07-03T11:50:16.236Z,1.40
2018-07-03T11:52:43.825Z,1.40
2018-07-03T11:55:11.432Z,1.25
2018-07-03T11:57:39.092Z,1.35
2018-07-03T12:00:06.643Z,1.37
2018-07-03T12:02:36.404Z,1.20
2018-07-03T12:05:04.300Z,1.47
2018-07-03T12:07:31.841Z,1.20
2018-07-03T12:09:59.762Z,1.17
2018-07-03T12:12:28.335Z,1.50
2018-07-03T12:14:55.968Z,1.50
2018-07-03T12:17:23.592Z,1.30
2018-07-03T12:20:03.281Z,1.27
2018-07-03T12:22:30.978Z,1.12
2018-07-03T12:24:58.629Z,1.15
2018-07-03T12:27:28.617Z,1.22
2018-07-03T12:29:56.195Z,1.10
2018-07-03T12:32:23.766Z,1.30
2018-07-03T12:34:51.455Z,1.35
2018-07-03T12:37:19.033Z,1.40
2018-07-03T12:39:46.672Z,1.60
2018-07-03T12:42:14.697Z,1.30
2018-07-03T12:44:42.412Z,1.20
2018-07-03T12:47:10.028Z,1.20
2018-07-03T12:49:37.603Z,1.40
2018-07-03T12:52:05.563Z,1.30
2018-07-03T12:54:33.219Z,1.40
2018-07-03T12:57:01.053Z,1.15
2018-07-03T12:59:28.631Z,1.37
2018-07-03T13:01:56.278Z,1.25
2018-07-03T13:04:24.031Z,1.30
2018-07-03T13:06:52.080Z,1.60
2018-07-03T13:09:19.830Z,1.00
2018-07-03T13:11:47.512Z,1.10
2018-07-03T13:14:15.239Z,1.40
2018-07-03T13:16:42.857Z,1.42
2018-07-03T13:19:10.412Z,1.30
2018-07-03T13:21:37.952Z,1.40
2018-07-03T13:24:05.814Z,1.27
2018-07-03T13:26:33.364Z,1.10
2018-07-03T13:29:00.988Z,1.30
2018-07-03T13:31:28.793Z,1.20
2018-07-03T13:33:57.184Z,1.30
2018-07-03T13:36:25.080Z,1.17
2018-07-03T13:38:52.896Z,1.50
2018-07-03T13:41:20.688Z,1.60
2018-07-03T13:43:48.352Z,1.30
2018-07-03T13:46:15.911Z,1.40
2018-07-03T13:48:43.435Z,1.30
2018-07-03T13:51:11.007Z,1.40
2018-07-03T13:53:38.708Z,1.30
2018-07-03T13:56:06.339Z,1.30
2018-07-03T13:58:34.199Z,1.45
2018-07-03T14:01:02.502Z,1.40
2018-07-03T14:03:30.132Z,1.42
2018-07-03T14:05:57.705Z,1.45
2018-07-03T14:08:26.628Z,1.37
2018-07-03T14:10:54.265Z,1.40
2018-07-03T14:13:21.919Z,1.60
2018-07-03T14:15:49.543Z,1.50
2018-07-03T14:18:21.764Z,1.12
2018-07-03T14:20:49.340Z,1.30
2018-07-03T14:23:16.927Z,1.25
2018-07-03T14:25:44.570Z,1.53
2018-07-03T14:28:12.274Z,1.40
2018-07-03T14:30:39.889Z,1.40
2018-07-03T14:33:07.510Z,1.30
2018-07-03T14:35:35.184Z,1.37
2018-07-03T14:38:02.789Z,1.30
2018-07-03T14:40:30.406Z,1.25
2018-07-03T14:42:58.003Z,1.80
2018-07-03T14:45:25.523Z,1.77
2018-07-03T14:47:54.647Z,1.40
2018-07-03T14:50:22.287Z,1.47
2018-07-03T14:52:49.872Z,1.30
2018-07-03T14:55:17.710Z,1.30
2018-07-03T14:57:45.419Z,1.22
2018-07-03T15:00:12.971Z,1.20
2018-07-03T15:02:40.536Z,1.70
2018-07-03T15:05:08.391Z,1.30
2018-07-03T15:07:35.965Z,1.43
2018-07-03T15:10:03.557Z,1.30
2018-07-03T15:12:31.692Z,1.20
2018-07-03T15:14:59.356Z,1.23
2018-07-03T15:17:29.800Z,1.63
2018-07-03T15:19:58.607Z,1.33
2018-07-03T15:22:26.978Z,1.40
2018-07-03T15:24:57.851Z,1.57
2018-07-03T15:27:25.579Z,1.50
2018-07-03T15:29:53.718Z,1.30
2018-07-03T15:32:21.750Z,1.40
2018-07-03T15:34:49.377Z,1.80
2018-07-03T15:37:17.007Z,2.00
2018-07-03T15:39:44.681Z,2.00
2018-07-03T15:42:12.345Z,1.83
2018-07-03T15:44:51.710Z,1.90
2018-07-03T15:47:19.629Z,1.53
2018-07-03T15:49:47.317Z,1.57
2018-07-03T15:52:15.015Z,1.63
2018-07-03T15:54:42.629Z,1.90
2018-07-03T15:57:10.316Z,2.03
2018-07-03T15:59:38.563Z,2.40
2018-07-03T16:02:13.025Z,1.63
2018-07-03T16:05:19.484Z,1.90
2018-07-03T16:07:56.206Z,1.83
2018-07-03T16:10:24.277Z,1.63
2018-07-03T16:12:51.875Z,1.80
2018-07-03T16:15:19.809Z,2.00
2018-07-03T16:17:47.456Z,1.70
2018-07-03T16:20:20.707Z,1.70
2018-07-03T16:22:48.785Z,1.80
2018-07-03T16:25:16.465Z,1.70
2018-07-03T16:27:44.018Z,1.73
2018-07-03T16:30:11.560Z,1.97
2018-07-03T16:32:39.124Z,1.77
2018-07-03T16:35:07.066Z,1.37
2018-07-03T16:37:35.041Z,1.87
2018-07-03T16:40:02.727Z,1.90
2018-07-03T16:42:32.672Z,2.10
2018-07-03T16:45:00.361Z,2.10
2018-07-03T16:47:30.970Z,1.73
2018-07-03T16:49:58.671Z,2.00
2018-07-03T16:52:26.448Z,3.03
2018-07-03T16:54:54.283Z,2.33
2018-07-03T16:57:22.001Z,2.30
2018-07-03T16:59:49.565Z,2.50
2018-07-03T17:02:17.138Z,2.40
2018-07-03T17:04:44.837Z,2.30
2018-07-03T17:07:12.463Z,2.00
2018-07-03T17:09:40.052Z,1.90
2018-07-03T17:12:07.739Z,1.80
2018-07-03T17:14:35.360Z,1.90
2018-07-03T17:17:03.093Z,1.60
2018-07-03T17:19:39.990Z,1.53
2018-07-03T17:22:07.789Z,1.60
2018-07-03T17:24:35.626Z,1.67
2018-07-03T17:27:03.546Z,3.03
2018-07-03T17:29:32.142Z,2.27
2018-07-03T17:31:59.895Z,2.03
2018-07-03T17:34:27.553Z,2.20
2018-07-03T17:36:55.117Z,2.43
2018-07-03T17:39:33.124Z,2.33
2018-07-03T17:42:12.228Z,1.80
2018-07-03T17:45:54.534Z,2.00
2018-07-03T17:48:22.144Z,1.83
2018-07-03T17:50:49.777Z,1.70
2018-07-03T17:53:17.660Z,2.10
2018-07-03T17:55:45.341Z,2.17
2018-07-03T17:58:13.093Z,2.00
2018-07-03T18:00:41.149Z,1.70
2018-07-03T18:03:10.914Z,1.63
2018-07-03T18:05:38.807Z,1.77
2018-07-03T18:08:06.505Z,2.00
2018-07-03T18:10:34.127Z,2.00
2018-07-03T18:13:01.853Z,1.77
2018-07-03T18:15:29.475Z,2.13
2018-07-03T18:17:57.116Z,1.97
2018-07-03T18:20:24.784Z,2.20
2018-07-03T18:22:52.364Z,2.20
2018-07-03T18:25:20.261Z,1.80
2018-07-03T18:27:47.895Z,2.10
2018-07-03T18:30:15.558Z,2.00
2018-07-03T18:32:43.360Z,1.73
2018-07-03T18:35:11.185Z,1.80
2018-07-03T18:37:38.860Z,1.70
2018-07-03T18:40:06.741Z,2.67
2018-07-03T18:42:34.596Z,1.90
2018-07-03T18:45:02.716Z,2.13
2018-07-03T18:47:33.100Z,1.80
2018-07-03T18:50:00.709Z,1.90
2018-07-03T18:59:14.209Z,3.07
2018-07-03T19:01:42.092Z,2.80
2018-07-03T19:04:10.376Z,2.47
2018-07-03T19:06:38.081Z,2.80
2018-07-03T19:09:07.067Z,2.87
2018-07-03T19:11:35.158Z,2.87
2018-07-03T19:14:03.047Z,2.60
2018-07-03T19:16:31.022Z,2.63
2018-07-03T19:18:59.219Z,10.60
2018-07-03T19:21:27.007Z,8.90
2018-07-03T19:23:54.636Z,3.10
2018-07-03T19:26:22.365Z,3.07
2018-07-03T19:28:49.972Z,5.30
2018-07-03T19:31:17.648Z,3.63
2018-07-03T19:33:45.333Z,2.80
2018-07-03T19:36:13.010Z,2.67
2018-07-03T19:38:40.657Z,2.87
2018-07-03T19:41:08.274Z,2.50
2018-07-03T19:43:36.999Z,2.90
2018-07-03T19:46:05.205Z,2.70
2018-07-03T19:48:32.935Z,2.63
2018-07-03T19:51:00.650Z,3.03
2018-07-03T19:53:28.363Z,2.93
2018-07-03T19:55:57.273Z,6.93
2018-07-03T19:58:24.961Z,3.47
2018-07-03T20:00:53.835Z,3.03
2018-07-03T20:03:21.445Z,2.93
2018-07-03T20:05:49.298Z,2.77
2018-07-03T20:08:17.066Z,3.03
2018-07-03T20:10:44.757Z,2.83
2018-07-03T20:13:14.641Z,2.90
2018-07-03T20:15:42.485Z,3.00
2018-07-03T20:18:11.227Z,3.23
2018-07-03T20:20:38.971Z,2.83
2018-07-03T20:23:06.679Z,3.03
2018-07-03T20:25:35.472Z,3.17
2018-07-03T20:28:03.869Z,2.97
2018-07-03T20:30:31.604Z,2.97
2018-07-03T20:32:59.809Z,3.27
2018-07-03T20:35:27.619Z,2.93
2018-07-03T20:37:58.241Z,5.70
2018-07-03T20:40:26.464Z,3.30
2018-07-03T20:42:55.722Z,2.63
2018-07-03T20:45:23.291Z,2.70
2018-07-03T20:47:50.920Z,2.70
2018-07-03T20:50:18.973Z,2.60
2018-07-03T20:52:46.764Z,2.20
2018-07-03T20:55:15.489Z,2.40
2018-07-03T20:57:43.540Z,2.40
2018-07-03T21:00:11.219Z,2.47
2018-07-03T21:02:38.861Z,2.60
2018-07-03T21:05:06.821Z,2.47
2018-07-03T21:07:36.044Z,2.87
2018-07-03T21:10:04.158Z,2.47
2018-07-03T21:12:35.863Z,2.80
2018-07-03T21:15:03.812Z,2.90
2018-07-03T21:17:34.352Z,2.87
2018-07-03T21:20:03.292Z,2.70
2018-07-03T21:22:31.298Z,2.67
2018-07-03T21:24:58.922Z,2.93
2018-07-03T21:27:26.885Z,2.63
2018-07-03T21:29:54.746Z,2.93
2018-07-03T21:32:22.472Z,2.77
2018-07-03T21:34:50.197Z,2.87
2018-07-03T21:37:18.068Z,2.90
2018-07-03T21:39:45.846Z,2.70
2018-07-03T21:42:14.024Z,2.60
2018-07-03T21:44:41.784Z,3.20
2018-07-03T21:47:09.676Z,2.80
2018-07-03T21:49:39.228Z,3.17
2018-07-03T21:52:07.753Z,2.73
2018-07-03T21:54:35.627Z,4.20
2018-07-03T21:57:03.396Z,3.90
2018-07-03T21:59:31.175Z,3.37
2018-07-03T22:01:59.004Z,2.90
2018-07-03T22:04:26.936Z,2.53
2018-07-03T22:06:55.229Z,2.60
2018-07-03T22:09:24.037Z,2.70
2018-07-03T22:11:51.989Z,2.53
2018-07-03T22:14:20.814Z,2.33
2018-07-03T22:16:48.978Z,2.73
2018-07-03T22:19:16.781Z,2.17
2018-07-03T22:21:44.640Z,2.37
2018-07-03T22:24:14.220Z,2.57
2018-07-03T22:26:42.672Z,2.53
2018-07-03T22:29:12.041Z,2.20
2018-07-03T22:31:39.842Z,2.10
2018-07-03T22:34:10.073Z,2.20
2018-07-03T22:36:38.258Z,2.00
2018-07-03T22:39:07.208Z,2.10
2018-07-03T22:41:34.758Z,2.10
2018-07-03T22:44:07.634Z,1.83
2018-07-03T22:46:35.640Z,2.17
2018-07-03T22:49:03.324Z,1.80
2018-07-03T22:51:31.040Z,2.07
2018-07-03T22:53:58.881Z,2.10
2018-07-03T22:56:26.629Z,1.80
2018-07-03T22:58:54.501Z,1.77
2018-07-03T23:01:22.291Z,1.80
2018-07-03T23:03:49.988Z,1.70
2018-07-03T23:06:17.644Z,1.67
2018-07-03T23:08:45.259Z,1.80
2018-07-03T23:11:13.502Z,1.73
2018-07-03T23:13:41.567Z,1.70
2018-07-03T23:16:09.486Z,1.80
2018-07-03T23:18:37.194Z,1.57
2018-07-03T23:21:05.253Z,1.90
2018-07-03T23:23:33.458Z,1.50
2018-07-03T23:26:01.236Z,1.63
2018-07-03T23:28:28.880Z,1.70
2018-07-03T23:30:56.757Z,1.70
2018-07-03T23:33:24.429Z,1.73
2018-07-03T23:35:52.133Z,1.70
2018-07-03T23:38:20.253Z,1.80
2018-07-03T23:40:48.102Z,1.80
2018-07-03T23:43:15.831Z,2.03
2018-07-03T23:45:55.203Z,1.90
2018-07-03T23:48:34.759Z,2.27
2018-07-03T23:51:15.091Z,2.30
2018-07-03T23:53:54.292Z,2.13
2018-07-03T23:56:34.456Z,2.50
2018-07-03T23:59:07.807Z,2.50
